Time;durP1;ratioP1;P1;durP2;ratioP2;P2;SDS_P1;SDS_P2;PMS_P1;PMS_P2;Temp;Humidity;BMP_temperature;BMP_pressure;BME280_temperature;BME280_humidity;BME280_pressure;Samples;Min_cycle;Max_cycle;Signal;HPM_P1;HPM_P2
2021/03/22 00:01:46;;;;;;;12.57;7.97;;;;;;;5.27;100.00;102862.70;1903496;74;935314;-75
2021/03/22 00:04:16;;;;;;;11.48;7.35;;;;;;;5.40;100.00;102867.78;1890818;74;936576;-75
2021/03/22 00:06:46;;;;;;;12.90;8.10;;;;;;;5.50;100.00;102862.77;1903516;74;936517;-77
2021/03/22 00:09:16;;;;;;;10.50;7.42;;;;;;;5.38;100.00;102863.55;1890846;73;935330;-77
2021/03/22 00:11:46;;;;;;;12.10;7.70;;;;;;;5.31;100.00;102866.23;1903600;74;936577;-77
2021/03/22 00:14:16;;;;;;;12.23;8.07;;;;;;;5.44;100.00;102869.61;1882579;71;936622;-75
2021/03/22 00:16:47;;;;;;;17.73;9.77;;;;;;;5.50;100.00;102871.56;1891207;74;936607;-76
2021/03/22 00:19:17;;;;;;;16.10;9.73;;;;;;;5.56;100.00;102869.39;1878593;74;936592;-76
2021/03/22 00:21:47;;;;;;;13.13;9.67;;;;;;;5.64;100.00;102871.13;1891200;74;936659;-78
2021/03/22 00:24:17;;;;;;;15.50;10.13;;;;;;;5.82;100.00;102864.52;1878689;74;939566;-77
2021/03/22 00:26:47;;;;;;;17.83;10.23;;;;;;;5.80;100.00;102870.78;1891010;74;937745;-76
2021/03/22 00:29:17;;;;;;;16.37;10.67;;;;;;;5.89;100.00;102873.73;1878829;73;938764;-77
2021/03/22 00:31:47;;;;;;;18.13;10.27;;;;;;;5.92;100.00;102874.17;1891066;74;938626;-78
2021/03/22 00:34:17;;;;;;;17.37;9.53;;;;;;;5.95;100.00;102878.41;1878551;74;944544;-77
2021/03/22 00:36:47;;;;;;;14.47;9.03;;;;;;;5.94;100.00;102881.73;1891144;73;936430;-77
2021/03/22 00:39:17;;;;;;;13.70;9.37;;;;;;;5.93;100.00;102884.16;1878798;74;935363;-77
2021/03/22 00:41:47;;;;;;;15.30;8.20;;;;;;;5.88;100.00;102877.02;1890934;74;936413;-77
2021/03/22 00:44:17;;;;;;;13.68;8.30;;;;;;;5.70;100.00;102870.30;1878688;75;935299;-77
2021/03/22 00:46:47;;;;;;;14.27;9.33;;;;;;;5.76;100.00;102866.73;1891039;74;935536;-76
2021/03/22 00:49:17;;;;;;;15.65;9.68;;;;;;;5.76;100.00;102868.97;1878746;73;935359;-77
2021/03/22 00:51:47;;;;;;;13.30;9.30;;;;;;;6.13;100.00;102871.81;1891098;73;935445;-77
2021/03/22 00:54:17;;;;;;;13.63;9.17;;;;;;;5.95;100.00;102870.99;1878771;74;936560;-77
2021/03/22 00:56:49;;;;;;;15.60;9.83;;;;;;;6.06;100.00;102861.81;1891148;74;936697;-77
2021/03/22 00:59:19;;;;;;;14.85;10.00;;;;;;;6.13;100.00;102866.81;1878739;74;936575;-77
2021/03/22 01:01:49;;;;;;;15.93;10.80;;;;;;;6.16;100.00;102858.97;1891109;74;938520;-77
2021/03/22 01:04:20;;;;;;;19.00;11.80;;;;;;;6.20;100.00;102859.44;1878927;74;938701;-77
2021/03/22 01:06:51;;;;;;;17.40;12.50;;;;;;;6.23;100.00;102852.11;1891225;74;937152;-76
2021/03/22 01:09:21;;;;;;;21.02;13.05;;;;;;;6.23;100.00;102840.55;1878760;74;937684;-75
2021/03/22 01:11:51;;;;;;;18.43;11.63;;;;;;;6.34;100.00;102845.97;1891003;74;935682;-75
2021/03/22 01:14:21;;;;;;;20.72;12.20;;;;;;;6.43;100.00;102836.44;1881764;74;937367;-74
2021/03/22 01:16:51;;;;;;;20.40;12.07;;;;;;;6.39;100.00;102842.06;1899255;74;936497;-74
2021/03/22 01:19:24;;;;;;;20.27;11.77;;;;;;;6.59;100.00;102836.59;1887442;74;937543;-75
2021/03/22 01:21:57;;;;;;;18.30;11.63;;;;;;;6.60;100.00;102825.84;1899877;74;936764;-74
2021/03/22 01:24:31;;;;;;;18.83;11.07;;;;;;;6.53;100.00;102823.62;1887381;74;938604;-75
2021/03/22 01:27:04;;;;;;;17.43;11.40;;;;;;;6.55;100.00;102814.58;1899997;74;936810;-75
2021/03/22 01:29:36;;;;;;;17.27;10.63;;;;;;;6.57;100.00;102824.37;1899933;74;938734;-76
2021/03/22 01:32:10;;;;;;;21.07;11.97;;;;;;;6.54;100.00;102820.66;1887569;74;938632;-75
2021/03/22 01:34:41;;;;;;;18.47;12.10;;;;;;;6.64;100.00;102818.84;1900052;74;938836;-75
2021/03/22 01:37:11;;;;;;;22.90;13.20;;;;;;;6.65;100.00;102818.64;1887459;74;938656;-77
2021/03/22 01:39:41;;;;;;;19.07;12.33;;;;;;;6.72;100.00;102815.87;1900037;74;938941;-77
2021/03/22 01:42:28;;;;;;;17.92;12.20;;;;;;;6.93;100.00;102809.30;1887515;74;938801;-76
2021/03/22 01:45:01;;;;;;;19.43;12.43;;;;;;;6.86;100.00;102805.14;1900045;74;936705;-76
2021/03/22 01:47:33;;;;;;;16.73;12.10;;;;;;;6.78;100.00;102806.22;1898885;74;938625;-77
2021/03/22 01:50:06;;;;;;;18.97;12.20;;;;;;;6.85;100.00;102804.82;1899888;74;936809;-77
2021/03/22 01:52:40;;;;;;;19.17;12.93;;;;;;;6.76;100.00;102795.89;1899979;74;937655;-76
2021/03/22 01:55:12;;;;;;;18.35;12.58;;;;;;;6.81;100.00;102786.45;1804514;77;938584;-77
2021/03/22 01:57:44;;;;;;;20.43;13.20;;;;;;;6.85;100.00;102780.81;1899897;73;938694;-77
2021/03/22 02:00:24;;;;;;;19.98;11.85;;;;;;;6.83;100.00;102780.72;1887626;73;938689;-77
2021/03/22 02:02:57;;;;;;;23.70;13.20;;;;;;;6.83;100.00;102771.91;1900022;74;936741;-75
2021/03/22 02:05:30;;;;;;;15.97;11.37;;;;;;;6.83;100.00;102772.44;1887607;74;937845;-77
2021/03/22 02:08:05;;;;;;;19.43;12.30;;;;;;;6.89;100.00;102769.36;1900105;74;936448;-77
2021/03/22 02:10:36;;;;;;;18.87;12.90;;;;;;;7.03;100.00;102777.92;1900113;74;938876;-74
2021/03/22 02:13:07;;;;;;;20.03;13.00;;;;;;;7.01;100.00;102767.11;1887491;74;938835;-77
2021/03/22 02:15:40;;;;;;;18.40;12.37;;;;;;;6.89;100.00;102761.89;1899647;72;938844;-77
2021/03/22 02:18:15;;;;;;;18.87;12.70;;;;;;;7.06;100.00;102760.38;1887347;74;938588;-75
2021/03/22 02:21:01;;;;;;;21.30;12.03;;;;;;;6.93;100.00;102757.63;1899173;73;937507;-75
2021/03/22 02:24:07;;;;;;;20.20;13.03;;;;;;;6.92;100.00;102751.81;1899046;74;938572;-77
2021/03/22 02:26:48;;;;;;;20.73;12.53;;;;;;;7.16;100.00;102751.13;1899977;74;938650;-75
2021/03/22 02:29:34;;;;;;;18.00;12.53;;;;;;;6.97;100.00;102745.65;1885799;74;938989;-76
2021/03/22 02:32:21;;;;;;;18.83;11.87;;;;;;;6.97;100.00;102737.36;1898045;74;938748;-75
2021/03/22 02:34:53;;;;;;;20.23;11.53;;;;;;;6.97;100.00;102731.83;1825136;76;936927;-75
2021/03/22 02:37:34;;;;;;;18.20;12.03;;;;;;;7.00;100.00;102739.16;1887629;74;939068;-75
2021/03/22 02:40:10;;;;;;;16.42;11.45;;;;;;;7.01;100.00;102736.72;1899978;74;936910;-76
2021/03/22 02:42:43;;;;;;;15.20;10.87;;;;;;;7.19;100.00;102727.72;1889716;76;26259;-75
2021/03/22 02:45:23;;;;;;;18.53;11.07;;;;;;;7.23;100.00;102730.39;1888418;76;26177;-75
2021/03/22 02:47:54;;;;;;;13.93;9.57;;;;;;;7.15;100.00;102724.55;1889863;76;26615;-76
2021/03/22 02:50:28;;;;;;;15.67;9.03;;;;;;;7.20;100.00;102727.52;1889982;76;26193;-75
2021/03/22 02:53:15;;;;;;;12.17;7.87;;;;;;;7.31;100.00;102721.33;1889792;75;26360;-76
2021/03/22 02:55:54;;;;;;;11.90;7.17;;;;;;;7.41;100.00;102717.22;1889391;75;26651;-75
2021/03/22 02:58:28;;;;;;;11.20;7.70;;;;;;;7.51;100.00;102707.41;1889558;75;26753;-75
2021/03/22 03:01:02;;;;;;;10.80;7.00;;;;;;;7.63;100.00;102706.17;1889747;76;26653;-76
2021/03/22 03:03:36;;;;;;;9.73;6.57;;;;;;;7.66;100.00;102708.49;1889809;75;26661;-75
2021/03/22 03:06:07;;;;;;;12.73;7.33;;;;;;;7.81;100.00;102709.59;1889939;76;26277;-75
2021/03/22 03:08:39;;;;;;;9.70;7.00;;;;;;;7.57;100.00;102704.31;1889873;76;26601;-75
2021/03/22 03:11:11;;;;;;;12.37;7.33;;;;;;;7.28;100.00;102697.39;1889764;76;26666;-76
2021/03/22 03:13:42;;;;;;;11.90;7.13;;;;;;;7.15;100.00;102703.81;1889908;76;26269;-76
2021/03/22 03:16:12;;;;;;;13.50;7.63;;;;;;;7.12;100.00;102704.26;1889036;74;26274;-75
2021/03/22 03:18:42;;;;;;;14.93;8.80;;;;;;;7.23;100.00;102696.66;1889902;74;26204;-75
2021/03/22 03:21:11;;;;;;;14.50;8.93;;;;;;;7.03;100.00;102706.94;1889526;75;26269;-75
2021/03/22 03:23:41;;;;;;;13.00;8.67;;;;;;;6.85;100.00;102709.52;1888728;76;26184;-75
2021/03/22 03:26:11;;;;;;;14.63;8.50;;;;;;;6.73;100.00;102711.23;1888985;76;26196;-75
2021/03/22 03:28:41;;;;;;;12.80;8.60;;;;;;;6.68;100.00;102710.50;1889785;75;26184;-75
2021/03/22 03:31:28;;;;;;;15.33;9.07;;;;;;;6.68;100.00;102713.27;1823264;78;33238;-74
2021/03/22 03:33:58;;;;;;;13.83;8.60;;;;;;;6.53;100.00;102718.70;1823644;79;26227;-74
2021/03/22 03:36:28;;;;;;;13.23;8.40;;;;;;;6.41;100.00;102718.50;1823830;79;26290;-74
2021/03/22 03:38:58;;;;;;;14.23;8.03;;;;;;;6.31;100.00;102725.81;1823698;79;26228;-74
2021/03/22 03:41:28;;;;;;;11.73;8.27;;;;;;;6.45;100.00;102726.67;1823750;79;26429;-75
2021/03/22 03:43:58;;;;;;;15.23;8.10;;;;;;;6.28;100.00;102726.77;1823748;79;26688;-75
2021/03/22 03:46:28;;;;;;;14.30;8.23;;;;;;;6.27;100.00;102726.44;1823733;79;26798;-75
2021/03/22 03:48:58;;;;;;;14.17;8.53;;;;;;;6.36;100.00;102732.94;1823852;79;26227;-75
2021/03/22 03:51:28;;;;;;;15.57;8.83;;;;;;;6.20;100.00;102732.50;1823744;79;26391;-75
2021/03/22 03:53:58;;;;;;;15.93;9.00;;;;;;;5.98;100.00;102748.90;1823725;79;26238;-75
2021/03/22 03:56:28;;;;;;;14.77;7.63;;;;;;;5.87;100.00;102740.16;1823694;79;26799;-75
2021/03/22 03:58:58;;;;;;;14.37;9.00;;;;;;;5.95;100.00;102751.52;1823769;79;26240;-75
2021/03/22 04:01:28;;;;;;;14.07;9.07;;;;;;;5.98;100.00;102749.75;1823684;79;26764;-75
2021/03/22 04:03:58;;;;;;;12.83;8.37;;;;;;;6.00;100.00;102751.75;1879942;76;26208;-74
2021/03/22 04:06:30;;;;;;;14.17;8.27;;;;;;;6.07;100.00;102746.27;1881192;76;26185;-74
2021/03/22 04:09:03;;;;;;;13.50;8.83;;;;;;;6.14;100.00;102748.50;1881155;76;26301;-74
2021/03/22 04:11:36;;;;;;;16.00;8.17;;;;;;;6.26;100.00;102746.29;1881156;76;26240;-74
2021/03/22 04:14:06;;;;;;;12.37;8.43;;;;;;;6.24;100.00;102745.66;1881172;76;26631;-74
2021/03/22 04:16:36;;;;;;;12.40;7.93;;;;;;;6.26;100.00;102747.67;1881332;76;26248;-74
2021/03/22 04:19:06;;;;;;;11.70;8.13;;;;;;;6.38;100.00;102751.50;1881102;74;26347;-74
2021/03/22 04:21:54;;;;;;;13.37;7.53;;;;;;;6.22;100.00;102739.49;1881149;76;26192;-76
2021/03/22 04:24:24;;;;;;;11.80;7.43;;;;;;;6.28;100.00;102742.80;1881276;76;26286;-74
2021/03/22 04:26:54;;;;;;;12.83;8.00;;;;;;;6.27;100.00;102741.09;1881165;76;26258;-74
2021/03/22 04:29:24;;;;;;;14.83;8.13;;;;;;;6.32;100.00;102748.22;1881172;76;26264;-75
2021/03/22 04:31:54;;;;;;;14.73;8.13;;;;;;;6.34;100.00;102747.46;1881229;76;26188;-74
2021/03/22 04:34:23;;;;;;;13.63;8.37;;;;;;;6.32;100.00;102739.09;1881344;76;26180;-74
2021/03/22 04:36:53;;;;;;;13.27;8.27;;;;;;;6.47;100.00;102730.58;1881248;76;26179;-74
2021/03/22 04:39:23;;;;;;;13.83;8.13;;;;;;;6.48;100.00;102738.66;1881175;76;26192;-75
2021/03/22 04:41:53;;;;;;;15.60;8.33;;;;;;;6.51;100.00;102731.33;1881148;76;26799;-75
2021/03/22 04:44:23;;;;;;;13.83;7.80;;;;;;;6.57;100.00;102736.53;1881245;76;26262;-75
2021/03/22 04:46:53;;;;;;;13.33;7.93;;;;;;;6.47;100.00;102735.58;1881163;76;26173;-77
2021/03/22 04:49:23;;;;;;;12.73;8.07;;;;;;;6.22;100.00;102735.35;1881203;76;26675;-76
2021/03/22 04:51:52;;;;;;;12.57;8.13;;;;;;;6.21;100.00;102736.41;1881156;76;26188;-76
2021/03/22 04:54:22;;;;;;;13.73;7.67;;;;;;;6.37;100.00;102733.79;1881151;76;26258;-76
2021/03/22 04:56:53;;;;;;;11.10;8.00;;;;;;;6.27;100.00;102731.96;1881227;76;26184;-76
2021/03/22 04:59:22;;;;;;;12.90;7.90;;;;;;;6.26;100.00;102727.50;1881118;76;26648;-76
2021/03/22 05:01:53;;;;;;;13.10;8.58;;;;;;;6.33;100.00;102729.19;1886306;74;932742;-75
2021/03/22 05:04:23;;;;;;;16.07;8.77;;;;;;;6.35;100.00;102735.89;1949613;73;26307;-75
2021/03/22 05:06:52;;;;;;;12.40;7.40;;;;;;;6.37;100.00;102737.37;1949467;73;26693;-75
2021/03/22 05:09:22;;;;;;;14.50;7.40;;;;;;;6.36;100.00;102736.22;1949483;73;26641;-76
2021/03/22 05:11:52;;;;;;;11.80;8.27;;;;;;;6.31;100.00;102737.38;1949491;73;26294;-76
2021/03/22 05:14:22;;;;;;;11.17;8.40;;;;;;;6.34;100.00;102732.81;1949540;73;26619;-76
2021/03/22 05:16:52;;;;;;;13.10;7.90;;;;;;;6.34;100.00;102734.19;1949649;73;26685;-75
2021/03/22 05:19:22;;;;;;;16.93;8.53;;;;;;;6.40;100.00;102734.20;1949576;70;26713;-75
2021/03/22 05:21:53;;;;;;;10.63;7.83;;;;;;;6.36;100.00;102733.46;1949644;73;26281;-75
2021/03/22 05:24:23;;;;;;;12.07;7.33;;;;;;;6.36;100.00;102731.55;1949579;73;26183;-75
2021/03/22 05:26:53;;;;;;;15.73;8.40;;;;;;;6.61;100.00;102740.05;1949482;73;26630;-75
2021/03/22 05:29:25;;;;;;;13.10;8.27;;;;;;;6.50;100.00;102736.55;1949489;73;26704;-75
2021/03/22 05:31:55;;;;;;;13.53;8.20;;;;;;;6.36;100.00;102737.08;1949585;73;26723;-75
2021/03/22 05:34:25;;;;;;;13.60;7.93;;;;;;;6.57;100.00;102734.63;1931533;73;26639;-76
2021/03/22 05:36:55;;;;;;;12.20;7.87;;;;;;;6.69;100.00;102728.78;1916033;74;26196;-76
2021/03/22 05:39:25;;;;;;;14.97;8.10;;;;;;;6.66;100.00;102728.36;1915890;74;26190;-76
2021/03/22 05:42:00;;;;;;;15.90;8.13;;;;;;;6.76;100.00;102721.88;1915897;75;26286;-76
2021/03/22 05:44:45;;;;;;;12.63;8.40;;;;;;;6.65;100.00;102714.23;1915881;73;27004;-76
2021/03/22 05:47:24;;;;;;;12.27;7.70;;;;;;;6.64;100.00;102716.66;1916046;75;26177;-76
2021/03/22 05:50:05;;;;;;;11.87;7.47;;;;;;;6.65;100.00;102716.98;1915955;75;26188;-76
2021/03/22 05:52:42;;;;;;;12.80;8.20;;;;;;;6.74;100.00;102710.19;1916259;75;26189;-75
2021/03/22 05:55:46;;;;;;;9.93;7.60;;;;;;;6.83;100.00;102716.66;1915811;75;26270;-75
2021/03/22 05:58:28;;;;;;;13.80;7.97;;;;;;;6.68;100.00;102720.16;1916028;75;26678;-76
2021/03/22 06:01:01;;;;;;;15.67;8.50;;;;;;;6.73;100.00;102716.23;1916241;73;26674;-75
2021/03/22 06:03:36;;;;;;;15.00;8.17;;;;;;;6.80;100.00;102712.10;1915968;75;26281;-75
2021/03/22 06:06:14;;;;;;;13.53;8.40;;;;;;;6.74;100.00;102712.42;1916046;75;26250;-75
2021/03/22 06:08:50;;;;;;;12.37;7.80;;;;;;;6.82;100.00;102716.34;1916014;75;26674;-75
2021/03/22 06:11:26;;;;;;;13.40;7.50;;;;;;;6.89;100.00;102719.08;1915905;75;26177;-75
2021/03/22 06:13:59;;;;;;;12.60;8.20;;;;;;;6.85;100.00;102720.04;1915809;75;26698;-75
2021/03/22 06:16:33;;;;;;;13.20;7.73;;;;;;;6.82;100.00;102715.48;1916021;75;26185;-75
2021/03/22 06:19:06;;;;;;;15.57;8.07;;;;;;;6.94;100.00;102707.38;1915986;71;26236;-75
2021/03/22 06:21:39;;;;;;;10.03;7.17;;;;;;;6.92;100.00;102710.91;1915994;75;26682;-75
2021/03/22 06:24:15;;;;;;;14.00;7.60;;;;;;;6.89;100.00;102710.78;1916095;75;26193;-76
2021/03/22 06:26:47;;;;;;;12.67;7.53;;;;;;;6.99;100.00;102715.34;1915992;75;26189;-75
2021/03/22 06:29:21;;;;;;;13.57;7.37;;;;;;;6.96;100.00;102710.27;1916085;75;26675;-75
2021/03/22 06:31:54;;;;;;;11.77;7.63;;;;;;;6.99;100.00;102710.34;1916081;75;26240;-75
2021/03/22 06:34:28;;;;;;;14.27;7.90;;;;;;;6.90;100.00;102706.97;1916198;75;26185;-74
2021/03/22 06:36:57;;;;;;;12.93;8.27;;;;;;;6.97;100.00;102706.97;1916153;75;26629;-75
2021/03/22 06:39:27;;;;;;;11.60;7.30;;;;;;;6.94;100.00;102713.75;1915932;75;26620;-75
2021/03/22 06:42:01;;;;;;;13.33;8.40;;;;;;;6.92;100.00;102715.91;1916008;74;26193;-75
2021/03/22 06:44:41;;;;;;;12.53;7.40;;;;;;;6.97;100.00;102713.34;1915968;75;26192;-75
2021/03/22 06:47:24;;;;;;;12.73;7.27;;;;;;;6.94;100.00;102717.90;1916085;75;26204;-75
2021/03/22 06:49:57;;;;;;;12.17;8.27;;;;;;;6.99;100.00;102721.40;1915989;75;26640;-76
2021/03/22 06:52:30;;;;;;;13.00;7.83;;;;;;;7.02;100.00;102725.10;1913803;75;26306;-75
2021/03/22 06:55:00;;;;;;;10.23;7.50;;;;;;;6.88;100.00;102720.69;1915435;75;26628;-76
2021/03/22 06:57:33;;;;;;;13.63;8.63;;;;;;;6.88;100.00;102720.16;1916164;75;26360;-76
2021/03/22 07:00:17;;;;;;;10.23;7.67;;;;;;;7.11;100.00;102723.80;1916146;75;26301;-75
2021/03/22 07:02:49;;;;;;;10.67;7.23;;;;;;;7.02;100.00;102716.81;1916058;75;26222;-75
2021/03/22 07:05:23;;;;;;;11.07;7.93;;;;;;;6.96;100.00;102722.69;1916020;75;26186;-75
2021/03/22 07:07:58;;;;;;;13.63;7.73;;;;;;;6.92;100.00;102726.95;1915701;75;26188;-75
2021/03/22 07:10:31;;;;;;;11.80;7.40;;;;;;;7.15;100.00;102723.16;1916006;75;26275;-75
2021/03/22 07:13:26;;;;;;;15.93;8.03;;;;;;;7.27;100.00;102725.56;1916173;75;26213;-76
2021/03/22 07:15:59;;;;;;;14.03;8.33;;;;;;;7.44;100.00;102725.11;1913359;75;26200;-77
2021/03/22 07:18:31;;;;;;;14.30;8.23;;;;;;;7.52;100.00;102714.65;1913848;74;26713;-75
2021/03/22 07:21:10;;;;;;;15.67;9.17;;;;;;;7.63;100.00;102715.33;1916097;71;26204;-75
2021/03/22 07:23:50;;;;;;;15.63;9.33;;;;;;;7.64;100.00;102714.80;1915998;75;26298;-75
2021/03/22 07:26:26;;;;;;;14.50;8.97;;;;;;;7.69;100.00;102713.60;1916159;75;26177;-75
2021/03/22 07:29:08;;;;;;;13.60;8.47;;;;;;;7.74;100.00;102720.71;1916053;74;26278;-76
2021/03/22 07:31:43;;;;;;;12.87;8.73;;;;;;;7.76;100.00;102722.17;1916259;75;26205;-76
2021/03/22 07:34:28;;;;;;;14.20;9.63;;;;;;;7.73;100.00;102732.84;1916322;75;26236;-75
2021/03/22 07:37:02;;;;;;;16.13;10.73;;;;;;;7.61;100.00;102729.92;1916140;74;26251;-75
2021/03/22 07:39:42;;;;;;;19.10;11.90;;;;;;;7.64;100.00;102728.09;1915896;74;26623;-76
2021/03/22 07:42:20;;;;;;;18.20;11.37;;;;;;;7.62;100.00;102732.13;1916435;75;26668;-74
2021/03/22 07:45:21;;;;;;;16.40;11.07;;;;;;;7.54;100.00;102731.84;1916169;75;26232;-75
2021/03/22 07:48:15;;;;;;;13.80;9.90;;;;;;;7.62;100.00;102734.36;1916097;75;26249;-76
2021/03/22 07:50:50;;;;;;;16.93;10.70;;;;;;;7.78;100.00;102730.27;1916073;75;26193;-76
2021/03/22 07:53:25;;;;;;;14.67;10.47;;;;;;;7.95;100.00;102735.59;1916111;75;26623;-75
2021/03/22 07:55:56;;;;;;;17.33;10.37;;;;;;;8.06;100.00;102732.11;1916017;73;26780;-76
2021/03/22 07:58:47;;;;;;;17.53;10.33;;;;;;;8.06;100.00;102727.95;1916024;75;26189;-75
2021/03/22 08:01:22;;;;;;;15.93;10.13;;;;;;;7.98;100.00;102731.52;1916259;75;26177;-76
2021/03/22 08:04:03;;;;;;;17.57;10.90;;;;;;;8.07;100.00;102741.27;1915995;75;26226;-74
2021/03/22 08:07:00;;;;;;;17.53;9.90;;;;;;;8.27;100.00;102738.34;1916427;75;26240;-76
2021/03/22 08:09:45;;;;;;;12.57;9.87;;;;;;;8.33;100.00;102726.42;1916213;75;26247;-76
2021/03/22 08:12:19;;;;;;;16.53;10.63;;;;;;;8.31;100.00;102729.94;1916040;75;26189;-76
2021/03/22 08:14:51;;;;;;;14.87;10.03;;;;;;;8.35;100.00;102738.95;1916219;75;26208;-76
2021/03/22 08:17:43;;;;;;;17.70;10.63;;;;;;;8.34;100.00;102733.12;1915976;75;26216;-76
2021/03/22 08:20:20;;;;;;;18.83;10.57;;;;;;;8.41;100.00;102738.61;1919953;73;26236;-76
2021/03/22 08:22:55;;;;;;;17.90;10.90;;;;;;;8.42;100.00;102732.85;1924848;74;26188;-75
2021/03/22 08:25:31;;;;;;;16.17;10.83;;;;;;;8.51;100.00;102734.81;1925097;74;26274;-77
2021/03/22 08:28:06;;;;;;;18.10;11.53;;;;;;;8.62;100.00;102733.53;1925347;74;26314;-77
2021/03/22 08:30:41;;;;;;;19.93;11.57;;;;;;;8.56;100.00;102736.34;1924777;74;26196;-77
2021/03/22 08:33:21;;;;;;;16.23;10.47;;;;;;;8.64;100.00;102741.05;1924955;73;26649;-76
2021/03/22 08:35:58;;;;;;;20.20;11.13;;;;;;;8.58;100.00;102740.59;1924917;74;26192;-76
2021/03/22 08:38:44;;;;;;;15.90;9.97;;;;;;;8.70;100.00;102743.47;1925025;74;26663;-76
2021/03/22 08:41:35;;;;;;;15.77;10.57;;;;;;;8.59;100.00;102742.30;1924855;74;26262;-75
2021/03/22 08:44:09;;;;;;;17.00;10.60;;;;;;;8.76;100.00;102744.50;1924099;73;26192;-76
2021/03/22 08:46:43;;;;;;;15.93;9.87;;;;;;;8.77;100.00;102746.20;1924710;74;26197;-76
2021/03/22 08:49:21;;;;;;;19.47;10.67;;;;;;;8.84;100.00;102740.90;1925162;74;26305;-76
2021/03/22 08:51:54;;;;;;;17.03;10.33;;;;;;;8.96;100.00;102742.37;1924659;74;26180;-76
2021/03/22 08:54:28;;;;;;;18.27;10.13;;;;;;;8.90;100.00;102740.53;1925013;74;26341;-76
2021/03/22 08:57:10;;;;;;;17.03;10.07;;;;;;;8.77;100.00;102744.25;1916303;74;26192;-76
2021/03/22 08:59:41;;;;;;;17.97;10.50;;;;;;;8.63;100.00;102741.30;1915994;75;26201;-75
2021/03/22 09:02:31;;;;;;;14.60;10.73;;;;;;;8.98;100.00;102749.41;1916125;75;26216;-75
2021/03/22 09:05:04;;;;;;;15.40;10.17;;;;;;;9.31;100.00;102740.72;1916105;75;26190;-75
2021/03/22 09:07:36;;;;;;;17.63;11.40;;;;;;;9.46;100.00;102746.72;1912042;75;26231;-76
2021/03/22 09:10:43;;;;;;;17.90;10.90;;;;;;;9.32;100.00;102748.51;1916050;75;26246;-76
2021/03/22 09:13:33;;;;;;;15.43;10.17;;;;;;;9.46;100.00;102744.48;1916137;75;26779;-75
2021/03/22 09:16:15;;;;;;;16.10;10.67;;;;;;;9.45;100.00;102745.58;1916122;75;26185;-76
2021/03/22 09:19:09;;;;;;;21.03;10.23;;;;;;;9.24;100.00;102743.27;1915968;75;26201;-75
2021/03/22 09:21:40;;;;;;;16.80;10.30;;;;;;;9.33;100.00;102749.64;1920106;74;26314;-76
2021/03/22 09:24:49;;;;;;;15.63;9.83;;;;;;;9.43;100.00;102754.12;1924525;74;26651;-75
2021/03/22 09:27:33;;;;;;;23.87;10.50;;;;;;;9.37;100.00;102754.22;1925080;74;26403;-75
2021/03/22 09:30:35;;;;;;;16.73;10.47;;;;;;;9.61;100.00;102750.50;1925118;74;26688;-75
2021/03/22 09:33:06;;;;;;;14.87;10.77;;;;;;;9.91;100.00;102746.37;1924614;74;26192;-78
2021/03/22 09:36:12;;;;;;;16.30;10.47;;;;;;;9.66;100.00;102738.16;1925284;74;26266;-77
2021/03/22 09:38:47;;;;;;;16.00;10.20;;;;;;;9.73;100.00;102736.14;1917249;74;26188;-77
2021/03/22 09:41:17;;;;;;;18.93;11.27;;;;;;;9.52;100.00;102736.09;1925041;74;26217;-77
2021/03/22 09:44:08;;;;;;;15.43;10.57;;;;;;;9.59;100.00;102731.30;1925288;74;26777;-78
2021/03/22 09:46:39;;;;;;;15.47;9.27;;;;;;;9.80;100.00;102729.09;1925387;74;26197;-76
2021/03/22 09:49:23;;;;;;;16.83;10.13;;;;;;;9.77;100.00;102721.25;1924980;74;26188;-78
2021/03/22 09:52:16;;;;;;;15.67;9.33;;;;;;;9.71;100.00;102723.05;1925140;74;26250;-77
2021/03/22 09:54:46;;;;;;;13.70;9.97;;;;;;;9.94;100.00;102730.08;1925098;74;26707;-76
2021/03/22 09:57:43;;;;;;;16.17;10.80;;;;;;;10.44;100.00;102729.77;1925028;74;26197;-79
2021/03/22 10:00:30;;;;;;;17.27;10.77;;;;;;;10.35;100.00;102728.45;1925131;74;26192;-76
2021/03/22 10:03:03;;;;;;;17.47;10.50;;;;;;;10.13;100.00;102729.50;1925153;74;26212;-75
2021/03/22 10:05:35;;;;;;;15.50;9.83;;;;;;;10.19;100.00;102726.33;1921468;74;26196;-74
2021/03/22 10:08:26;;;;;;;15.77;10.10;;;;;;;10.26;100.00;102728.48;1920871;74;26192;-75
2021/03/22 10:10:58;;;;;;;15.90;10.27;;;;;;;10.17;100.00;102725.73;1925177;74;26196;-75
2021/03/22 10:13:31;;;;;;;15.43;9.57;;;;;;;10.42;100.00;102727.25;1924953;74;26185;-74
2021/03/22 10:16:04;;;;;;;13.73;8.87;;;;;;;10.77;100.00;102725.06;1924930;74;26189;-75
2021/03/22 10:18:37;;;;;;;15.00;9.70;;;;;;;10.67;100.00;102720.09;1924258;74;26754;-75
2021/03/22 10:21:12;;;;;;;14.20;9.97;;;;;;;10.79;100.00;102725.65;1925191;72;26261;-75
2021/03/22 10:23:49;;;;;;;16.80;9.57;;;;;;;10.82;100.00;102729.36;1925062;74;26794;-75
2021/03/22 10:26:24;;;;;;;15.13;9.50;;;;;;;11.04;100.00;102731.81;1840739;78;26654;-75
2021/03/22 10:29:14;;;;;;;17.13;10.67;;;;;;;10.78;100.00;102728.15;1899996;75;26189;-75
2021/03/22 10:31:44;;;;;;;13.27;8.70;;;;;;;10.92;100.00;102728.19;1900070;75;26198;-76
2021/03/22 10:34:22;;;;;;;16.07;9.90;;;;;;;10.91;100.00;102723.74;1899981;75;26201;-76
2021/03/22 10:36:52;;;;;;;14.13;8.77;;;;;;;10.98;100.00;102720.28;1900020;75;26194;-76
2021/03/22 10:39:27;;;;;;;13.77;9.67;;;;;;;10.87;100.00;102717.80;1899757;75;26259;-76
2021/03/22 10:41:58;;;;;;;15.17;8.80;;;;;;;11.15;100.00;102727.34;1899398;75;26247;-74
2021/03/22 10:44:31;;;;;;;42.27;13.17;;;;;;;11.05;100.00;102725.70;1899960;75;26206;-74
2021/03/22 10:47:07;;;;;;;16.17;9.43;;;;;;;10.98;100.00;102723.61;1899515;75;26596;-75
2021/03/22 10:49:37;;;;;;;17.47;9.77;;;;;;;10.89;100.00;102715.63;1899815;75;26186;-76
2021/03/22 10:52:23;;;;;;;13.73;8.70;;;;;;;11.22;100.00;102716.38;1900340;75;26271;-75
2021/03/22 10:54:54;;;;;;;13.47;9.13;;;;;;;11.48;100.00;102700.23;1925113;74;26209;-75
2021/03/22 11:00:24;;;;;;;13.17;9.57;;;;;;;11.52;100.00;102695.32;1924422;74;26250;-76
2021/03/22 11:02:57;;;;;;;13.77;8.53;;;;;;;11.53;100.00;102693.39;1924750;74;26698;-75
2021/03/22 11:05:33;;;;;;;13.23;9.30;;;;;;;11.36;100.00;102695.56;1916162;74;26198;-75
2021/03/22 11:08:06;;;;;;;12.70;9.53;;;;;;;11.18;100.00;102701.27;1916126;75;26196;-75
2021/03/22 11:10:37;;;;;;;16.00;9.07;;;;;;;11.01;100.00;102698.08;1916048;75;26616;-75
2021/03/22 11:13:10;;;;;;;14.43;8.07;;;;;;;11.03;100.00;102698.70;1916038;75;26192;-76
2021/03/22 11:15:41;;;;;;;13.07;8.00;;;;;;;11.47;100.00;102688.25;1916116;75;26262;-76
2021/03/22 11:18:17;;;;;;;14.27;7.67;;;;;;;11.64;100.00;102689.16;1916216;75;26197;-76
2021/03/22 11:20:50;;;;;;;10.70;7.40;;;;;;;11.92;100.00;102681.95;1916300;75;26205;-76
2021/03/22 11:23:26;;;;;;;15.93;8.17;;;;;;;12.22;100.00;102682.52;1915912;71;26248;-76
2021/03/22 11:25:58;;;;;;;14.90;8.33;;;;;;;12.17;100.00;102682.41;1916044;75;26205;-75
2021/03/22 11:28:32;;;;;;;14.03;7.90;;;;;;;12.32;100.00;102683.52;1916050;75;26185;-76
2021/03/22 11:31:06;;;;;;;12.87;7.30;;;;;;;12.14;100.00;102682.38;1916097;75;26190;-76
2021/03/22 11:33:41;;;;;;;12.90;8.20;;;;;;;12.13;100.00;102686.26;1916007;75;26628;-76
2021/03/22 11:36:14;;;;;;;15.87;8.23;;;;;;;11.83;100.00;102681.50;1916050;75;26255;-76
2021/03/22 11:38:53;;;;;;;11.97;7.70;;;;;;;11.91;100.00;102680.25;1916153;75;26248;-76
2021/03/22 11:41:31;;;;;;;10.10;7.30;;;;;;;12.27;100.00;102675.64;1916044;75;26660;-75
2021/03/22 11:44:09;;;;;;;11.33;7.53;;;;;;;12.10;100.00;102674.78;1916080;75;26181;-75
2021/03/22 11:46:39;;;;;;;12.13;6.33;;;;;;;12.56;100.00;102677.80;1915301;75;26282;-75
2021/03/22 11:49:32;;;;;;;9.40;6.67;;;;;;;12.85;100.00;102672.94;1916103;75;26263;-75
2021/03/22 11:52:04;;;;;;;12.10;6.77;;;;;;;12.60;100.00;102677.58;1916094;75;26188;-76